createdAt,value
2023-04-10T00:01:41.340Z,71.6
2023-04-10T00:03:41.529Z,73.1
2023-04-10T00:05:41.464Z,73.1
2023-04-10T00:07:41.612Z,74.3
2023-04-10T00:09:41.440Z,75.3
2023-04-10T00:11:41.656Z,77.2
2023-04-10T00:13:41.670Z,76.5
2023-04-10T00:15:41.729Z,76.5
2023-04-10T00:17:41.752Z,77.1
2023-04-10T00:19:41.727Z,77.6
2023-04-10T00:21:41.981Z,77.6
2023-04-10T00:23:41.771Z,77
2023-04-10T00:25:41.953Z,78.8
2023-04-10T00:27:42.048Z,78.2
2023-04-10T00:29:41.994Z,79
2023-04-10T00:31:42.084Z,79.6
2023-04-10T00:33:42.124Z,79.5
2023-04-10T00:35:42.063Z,80.2
2023-04-10T00:37:42.048Z,80.2
2023-04-10T00:39:42.230Z,80.2
2023-04-10T00:41:42.444Z,80.2
2023-04-10T00:43:43.573Z,80
2023-04-10T00:45:42.173Z,80
2023-04-10T00:47:42.349Z,80
2023-04-10T00:49:42.966Z,80
2023-04-10T00:51:42.197Z,80
2023-04-10T00:53:42.445Z,80.2
2023-04-10T00:55:43.048Z,80.2
2023-04-10T00:57:44.986Z,80.2
2023-04-10T00:59:42.267Z,80.2
2023-04-10T01:01:42.619Z,80.2
2023-04-10T01:03:44.364Z,79.8
2023-04-10T01:05:50.952Z,79.5
2023-04-10T01:08:03.226Z,79.5
2023-04-10T01:09:52.226Z,79.5
2023-04-10T01:11:50.017Z,78.9
2023-04-10T01:13:52.774Z,79
2023-04-10T01:15:47.236Z,79
2023-04-10T01:17:49.682Z,79
2023-04-10T01:20:01.867Z,79.7
2023-04-10T01:21:42.787Z,79.7
2023-04-10T01:24:05.617Z,79
2023-04-10T01:25:48.497Z,79
2023-04-10T01:27:53.792Z,78.5
2023-04-10T01:29:47.587Z,78.5
2023-04-10T01:31:50.252Z,77.6
2023-04-10T01:33:48.822Z,77.5
2023-04-10T01:35:47.050Z,77.5
2023-04-10T01:37:45.338Z,77.5
2023-04-10T01:39:49.321Z,77.5
2023-04-10T01:41:45.660Z,77.5
2023-04-10T01:43:42.896Z,78.3
2023-04-10T01:45:44.396Z,78.3
2023-04-10T01:47:43.385Z,78.3
2023-04-10T01:49:45.852Z,78.3
2023-04-10T01:51:44.620Z,78.3
2023-04-10T01:53:43.799Z,78.5
2023-04-10T01:55:44.595Z,78.5
2023-04-10T01:57:42.858Z,78.5
2023-04-10T01:59:43.336Z,78.5
2023-04-10T02:01:42.680Z,78.5
2023-04-10T02:03:42.557Z,78.5
2023-04-10T02:05:54.097Z,78.9
2023-04-10T02:07:49.291Z,78.9
2023-04-10T02:09:50.214Z,78.9
2023-04-10T02:11:48.789Z,78.9
2023-04-10T02:13:42.874Z,79.1
2023-04-10T02:15:46.046Z,79.1
2023-04-10T02:17:43.207Z,79.1
2023-04-10T02:19:47.554Z,79.1
2023-04-10T02:21:42.490Z,79.1
2023-04-10T02:23:42.597Z,79
2023-04-10T02:25:42.617Z,79
2023-04-10T02:27:42.857Z,79
2023-04-10T02:29:42.341Z,79
2023-04-10T02:31:43.599Z,79
2023-04-10T02:33:42.460Z,78.8
2023-04-10T02:35:42.509Z,78.8
2023-04-10T02:37:42.391Z,78.8
2023-04-10T02:39:42.635Z,78.8
2023-04-10T02:41:45.808Z,78.8
2023-04-10T02:43:42.339Z,78.6
2023-04-10T02:45:43.376Z,78.6
2023-04-10T02:47:42.777Z,78.6
2023-04-10T02:49:45.798Z,78.6
2023-04-10T02:51:42.766Z,78.6
2023-04-10T02:53:42.412Z,79.3
2023-04-10T02:55:42.414Z,79.3
2023-04-10T02:57:42.582Z,79.3
2023-04-10T02:59:43.277Z,80.3
2023-04-10T03:01:42.384Z,80.3
2023-04-10T03:03:42.689Z,80.7
2023-04-10T03:05:42.305Z,81
2023-04-10T03:07:42.555Z,81
2023-04-10T03:09:42.183Z,81.9
2023-04-10T03:11:42.167Z,81.9
2023-04-10T03:13:42.135Z,81.9
2023-04-10T03:15:42.401Z,81.9
2023-04-10T03:17:42.202Z,82.5
2023-04-10T03:19:42.120Z,82.5
2023-04-10T03:21:42.129Z,82.5
2023-04-10T03:23:42.087Z,82.7
2023-04-10T03:25:42.454Z,83
2023-04-10T03:27:41.975Z,82.1
2023-04-10T03:29:41.995Z,82.1
2023-04-10T03:31:42.109Z,82.1
2023-04-10T03:33:41.985Z,81.8
2023-04-10T03:35:42.116Z,81.3
2023-04-10T03:37:41.969Z,80.8
2023-04-10T03:39:41.946Z,80.2
2023-04-10T03:41:42.170Z,80.2
2023-04-10T03:43:42.444Z,80.3
2023-04-10T03:45:42.164Z,80.3
2023-04-10T03:47:42.685Z,81.6
2023-04-10T03:49:42.103Z,82.2
2023-04-10T03:51:41.927Z,82.2
2023-04-10T03:53:46.066Z,81.5
2023-04-10T03:55:41.957Z,81.5
2023-04-10T03:57:42.013Z,81.5
2023-04-10T03:59:44.694Z,82.3
2023-04-10T04:01:44.016Z,82.3
2023-04-10T04:03:57.085Z,81
2023-04-10T04:05:57.200Z,77.1
2023-04-10T04:07:50.466Z,76.7
2023-04-10T04:09:56.874Z,76.1
2023-04-10T04:11:57.037Z,75.2
2023-04-10T04:13:47.168Z,76.1
2023-04-10T04:15:54.100Z,75.3
2023-04-10T04:17:42.616Z,76.4
2023-04-10T04:19:48.480Z,76.6
2023-04-10T04:21:57.370Z,76.6
2023-04-10T04:23:46.837Z,76.1
2023-04-10T04:25:57.568Z,76.7
2023-04-10T04:27:57.503Z,75.7
2023-04-10T04:29:57.143Z,74.5
2023-04-10T04:31:50.061Z,74.5
2023-04-10T04:33:58.164Z,74.7
2023-04-10T04:36:02.038Z,73.4
2023-04-10T04:37:52.267Z,75.5
2023-04-10T04:39:54.454Z,75.2
2023-04-10T04:41:50.174Z,69.5
2023-04-10T04:43:58.840Z,68.9
2023-04-10T04:46:00.001Z,70.4
2023-04-10T04:47:59.802Z,68.1
2023-04-10T04:50:00.269Z,68.5
2023-04-10T04:52:00.060Z,69.4
2023-04-10T04:54:00.685Z,68.6
2023-04-10T04:55:58.786Z,68.1
2023-04-10T04:58:01.374Z,66.3
2023-04-10T04:59:51.696Z,66.8
2023-04-10T05:02:02.074Z,66.8
2023-04-10T05:04:03.165Z,67.9
2023-04-10T05:06:02.630Z,67.9
2023-04-10T05:08:04.928Z,67
2023-04-10T05:10:03.009Z,67.1
2023-04-10T05:12:01.671Z,64.6
2023-04-10T05:13:57.878Z,65
2023-04-10T05:16:04.074Z,65.9
2023-04-10T05:18:04.563Z,66.6
2023-04-10T05:20:04.522Z,65.1
2023-04-10T05:22:04.921Z,64.5
2023-04-10T05:24:02.273Z,61.5
2023-04-10T05:25:54.519Z,64.2
2023-04-10T05:28:05.922Z,62.3
2023-04-10T05:30:06.312Z,62.7
2023-04-10T05:32:07.827Z,63.6
2023-04-10T05:33:59.373Z,64
2023-04-10T05:35:59.092Z,63.2
2023-04-10T05:37:59.542Z,62.1
2023-04-10T05:40:00.822Z,61.2
2023-04-10T05:42:01.145Z,60.4
2023-04-10T05:44:04.814Z,60.4
2023-04-10T05:46:09.707Z,61.4
2023-04-10T05:48:09.868Z,59.1
2023-04-10T05:50:07.666Z,60.3
2023-04-10T05:52:10.750Z,59.6
2023-04-10T05:54:13.819Z,58.8
2023-04-10T05:56:11.803Z,60.4
2023-04-10T05:57:57.103Z,57.8
2023-04-10T06:00:12.411Z,60.5
2023-04-10T06:01:58.317Z,57.3
2023-04-10T06:03:58.711Z,57.3
2023-04-10T06:06:00.484Z,56.5
2023-04-10T06:07:59.376Z,56.2
2023-04-10T06:09:59.929Z,56.7
2023-04-10T06:12:00.278Z,55.7
2023-04-10T06:14:06.261Z,55.7
2023-04-10T06:16:01.989Z,53.6
2023-04-10T06:18:01.680Z,54.5
2023-04-10T06:20:02.779Z,54.8
2023-04-10T06:22:02.705Z,54.8
2023-04-10T06:24:03.242Z,52.6
2023-04-10T06:26:04.179Z,52.3
2023-04-10T06:28:04.096Z,52.3
2023-04-10T06:30:05.634Z,52.8
2023-04-10T06:32:08.590Z,51.1
2023-04-10T06:34:05.947Z,50.9
2023-04-10T06:36:09.673Z,50.1
2023-04-10T06:38:08.170Z,50.1
2023-04-10T06:40:09.160Z,51.1
2023-04-10T06:42:22.115Z,51.1
2023-04-10T06:44:07.801Z,52.6
2023-04-10T06:46:08.413Z,51.1
2023-04-10T06:48:08.545Z,50
2023-04-10T06:50:09.704Z,51
2023-04-10T06:52:09.787Z,49.8
2023-04-10T06:54:10.068Z,49.8
2023-04-10T06:56:10.876Z,49.8
2023-04-10T06:58:11.058Z,50.3
2023-04-10T07:00:12.530Z,49.7
2023-04-10T07:02:12.207Z,50.4
2023-04-10T07:04:12.556Z,51
2023-04-10T07:06:13.073Z,47.9
2023-04-10T07:08:13.575Z,48.8
2023-04-10T07:10:13.964Z,48.3
2023-04-10T07:12:14.521Z,48.9
2023-04-10T07:14:14.906Z,47.9
2023-04-10T07:16:15.348Z,48.6
2023-04-10T07:18:15.638Z,47.7
2023-04-10T07:20:16.071Z,49
2023-04-10T07:22:16.343Z,47.6
2023-04-10T07:24:16.675Z,46.9
2023-04-10T07:26:17.062Z,46.9
2023-04-10T07:28:17.353Z,47.4
2023-04-10T07:30:18.497Z,47.2
2023-04-10T07:32:18.138Z,46.3
2023-04-10T07:34:18.256Z,46.3
2023-04-10T07:36:18.617Z,46.6
2023-04-10T07:38:18.826Z,47.5
2023-04-10T07:40:19.226Z,45.7
2023-04-10T07:42:19.478Z,45.7
2023-04-10T07:44:19.626Z,45.8
2023-04-10T07:46:20.130Z,46.5
2023-04-10T07:48:20.238Z,46.3
2023-04-10T07:50:20.484Z,46.3
2023-04-10T07:52:20.798Z,45.6
2023-04-10T07:54:21.205Z,45.8
2023-04-10T07:56:21.580Z,45.8
2023-04-10T07:58:21.524Z,45.3
2023-04-10T08:00:21.765Z,45.3
2023-04-10T08:02:22.178Z,45.3
2023-04-10T08:04:22.503Z,44.7
2023-04-10T08:06:23.006Z,46.1
2023-04-10T08:08:22.882Z,46
2023-04-10T08:10:23.214Z,44.9
2023-04-10T08:12:23.580Z,45.9
2023-04-10T08:14:23.640Z,45.3
2023-04-10T08:16:25.102Z,45.3
2023-04-10T08:18:24.227Z,45.3
2023-04-10T08:20:24.469Z,48.3
2023-04-10T08:22:25.047Z,47.4
2023-04-10T08:24:24.920Z,45.9
2023-04-10T08:26:26.381Z,45.8
2023-04-10T08:28:25.542Z,45
2023-04-10T08:30:25.736Z,45
2023-04-10T08:32:26.131Z,45
2023-04-10T08:34:26.484Z,45
2023-04-10T08:36:27.583Z,44.3
2023-04-10T08:38:26.740Z,45.7
2023-04-10T08:40:27.250Z,44.8
2023-04-10T08:42:27.333Z,44.9
2023-04-10T08:44:27.760Z,45.2
2023-04-10T08:46:31.916Z,46.2
2023-04-10T08:48:34.725Z,46.2
2023-04-10T08:50:30.467Z,46.2
2023-04-10T08:52:32.406Z,47
2023-04-10T08:54:32.084Z,47.1
2023-04-10T08:56:32.088Z,47.1
2023-04-10T08:58:30.952Z,47.1
2023-04-10T09:00:32.477Z,46.3
2023-04-10T09:02:30.070Z,47.6
2023-04-10T09:04:30.228Z,47.3
2023-04-10T09:06:30.397Z,49.4
2023-04-10T09:08:30.709Z,48.3
2023-04-10T09:10:30.876Z,48.3
2023-04-10T09:12:42.943Z,49.2
2023-04-10T09:14:33.103Z,48.4
2023-04-10T09:16:31.587Z,49.2
2023-04-10T09:18:47.071Z,51.3
2023-04-10T09:20:32.456Z,53.2
2023-04-10T09:22:34.157Z,53.2
2023-04-10T09:24:36.790Z,54.4
2023-04-10T09:26:32.935Z,50.5
2023-04-10T09:28:48.468Z,49.5
2023-04-10T09:30:35.393Z,49.5
2023-04-10T09:32:38.133Z,50.2
2023-04-10T09:34:33.699Z,49.8
2023-04-10T09:36:33.954Z,50.7
2023-04-10T09:38:34.049Z,50.7
2023-04-10T09:40:34.359Z,51.3
2023-04-10T09:42:36.473Z,50.7
2023-04-10T09:44:37.756Z,50.6
2023-04-10T09:46:35.149Z,50.1
2023-04-10T09:48:35.052Z,49.5
2023-04-10T09:50:38.697Z,49.5
2023-04-10T09:52:35.612Z,50.1
2023-04-10T09:54:36.058Z,49.4
2023-04-10T09:56:38.524Z,49.4
2023-04-10T09:58:36.101Z,48.8
2023-04-10T10:00:40.139Z,48.2
2023-04-10T10:02:37.645Z,48.2
2023-04-10T10:04:38.488Z,48.5
2023-04-10T10:06:38.536Z,48.5
2023-04-10T10:08:37.291Z,48.5
2023-04-10T10:10:43.684Z,47.6
2023-04-10T10:12:43.543Z,47.6
2023-04-10T10:14:44.214Z,48.2
2023-04-10T10:16:44.928Z,47
2023-04-10T10:18:44.781Z,46.3
2023-04-10T10:20:43.481Z,45.3
2023-04-10T10:22:39.831Z,46
2023-04-10T10:24:43.963Z,45.1
2023-04-10T10:26:40.200Z,45.1
2023-04-10T10:28:40.536Z,47
2023-04-10T10:30:40.320Z,45.5
2023-04-10T10:32:40.776Z,46
2023-04-10T10:34:41.163Z,44.8
2023-04-10T10:36:40.663Z,45.6
2023-04-10T10:38:47.621Z,45.6
2023-04-10T10:40:48.591Z,45.6
2023-04-10T10:42:49.562Z,46.4
2023-04-10T10:44:47.669Z,46.4
2023-04-10T10:46:49.185Z,46.4
2023-04-10T10:48:55.658Z,45.8
2023-04-10T10:50:57.712Z,46.5
2023-04-10T10:52:45.409Z,46.5
2023-04-10T10:54:53.533Z,46.3
2023-04-10T10:56:43.373Z,45.7
2023-04-10T10:58:47.864Z,45.7
2023-04-10T11:01:12.974Z,45.7
2023-04-10T11:02:44.262Z,46.7
2023-04-10T11:04:45.027Z,47.6
2023-04-10T11:06:51.763Z,46.1
2023-04-10T11:08:46.569Z,46.1
2023-04-10T11:10:59.618Z,46.1
2023-04-10T11:13:14.642Z,45.3
2023-04-10T11:14:57.018Z,46
2023-04-10T11:16:47.004Z,46
2023-04-10T11:19:13.248Z,46
2023-04-10T11:21:08.900Z,45.9
2023-04-10T11:23:07.595Z,45.4
2023-04-10T11:25:01.434Z,45.4
2023-04-10T11:26:47.583Z,45.4
2023-04-10T11:28:47.393Z,45.7
2023-04-10T11:30:47.652Z,46.4
2023-04-10T11:32:48.997Z,45.8
2023-04-10T11:34:48.481Z,45.8
2023-04-10T11:36:49.335Z,47.2
2023-04-10T11:38:57.489Z,44.9
2023-04-10T11:40:59.039Z,44.9
2023-04-10T11:42:49.378Z,44.9
2023-04-10T11:44:49.628Z,45.6
2023-04-10T11:46:49.906Z,44.4
2023-04-10T11:48:53.140Z,44.4
2023-04-10T11:50:50.488Z,45
2023-04-10T11:52:50.849Z,45
2023-04-10T11:54:50.874Z,44.4
2023-04-10T11:57:01.358Z,44.4
2023-04-10T11:58:51.536Z,44.4
2023-04-10T12:01:01.369Z,46.5
2023-04-10T12:02:52.691Z,43.8
2023-04-10T12:04:57.750Z,43.8
2023-04-10T12:06:55.834Z,44.4
2023-04-10T12:08:53.795Z,44.4
2023-04-10T12:10:53.089Z,45.5
2023-04-10T12:12:53.367Z,47
2023-04-10T12:14:53.543Z,47.6
2023-04-10T12:16:54.260Z,47.6
2023-04-10T12:18:54.887Z,47.6
2023-04-10T12:20:54.823Z,47.6
2023-04-10T12:22:55.491Z,47.8
2023-04-10T12:24:54.766Z,47.8
2023-04-10T12:26:54.968Z,48.3
2023-04-10T12:28:58.692Z,48.3
2023-04-10T12:30:55.657Z,48.3
2023-04-10T12:32:55.861Z,47.6
2023-04-10T12:34:58.222Z,47.6
2023-04-10T12:36:56.268Z,47.6
2023-04-10T12:38:57.194Z,47.6
2023-04-10T12:40:57.932Z,47.6
2023-04-10T12:42:57.080Z,48.3
2023-04-10T12:44:59.079Z,48.3
2023-04-10T12:47:00.060Z,48.3
2023-04-10T12:49:08.839Z,48.3
2023-04-10T12:50:58.288Z,48.3
2023-04-10T12:53:03.422Z,48.6
2023-04-10T12:55:09.183Z,48.5
2023-04-10T12:56:59.370Z,48.5
2023-04-10T12:59:06.582Z,48.5
2023-04-10T13:01:03.766Z,48.5
2023-04-10T13:02:59.668Z,48.9
2023-04-10T13:04:59.605Z,48.9
2023-04-10T13:06:59.865Z,49
2023-04-10T13:09:00.108Z,49
2023-04-10T13:11:00.248Z,49
2023-04-10T13:13:00.535Z,49.6
2023-04-10T13:15:01.043Z,50.5
2023-04-10T13:17:01.022Z,49.4
2023-04-10T13:19:01.561Z,49.8
2023-04-10T13:21:01.396Z,49.8
2023-04-10T13:23:01.911Z,50.2
2023-04-10T13:25:02.054Z,49.8
2023-04-10T13:27:02.226Z,49.8
2023-04-10T13:29:02.357Z,50.4
2023-04-10T13:31:02.757Z,50.4
2023-04-10T13:33:03.039Z,50.3
2023-04-10T13:35:03.292Z,50.3
2023-04-10T13:37:03.532Z,50.3
2023-04-10T13:39:03.607Z,50.7
2023-04-10T13:41:03.958Z,50.1
2023-04-10T13:43:03.977Z,50.5
2023-04-10T13:45:04.799Z,50.5
2023-04-10T13:47:04.443Z,49.6
2023-04-10T13:49:04.766Z,51.3
2023-04-10T13:51:05.368Z,51.3
2023-04-10T13:53:05.107Z,50.9
2023-04-10T13:55:06.771Z,50.9
2023-04-10T13:57:06.059Z,50.9
2023-04-10T13:59:05.813Z,50.3
2023-04-10T14:01:06.450Z,50.9
2023-04-10T14:03:06.502Z,51
2023-04-10T14:05:07.517Z,51
2023-04-10T14:07:06.720Z,52.8
2023-04-10T14:09:07.020Z,54.1
2023-04-10T14:11:07.232Z,55.1
2023-04-10T14:13:07.427Z,55.3
2023-04-10T14:15:08.482Z,55.3
2023-04-10T14:17:07.937Z,54.4
2023-04-10T14:19:08.477Z,55.1
2023-04-10T14:21:09.163Z,55.1
2023-04-10T14:23:08.726Z,54.8
2023-04-10T14:25:13.143Z,54.6
2023-04-10T14:27:09.232Z,54
2023-04-10T14:29:10.237Z,53.4
2023-04-10T14:31:09.293Z,53.4
2023-04-10T14:33:09.490Z,52.9
2023-04-10T14:35:10.715Z,53.5
2023-04-10T14:37:14.105Z,53
2023-04-10T14:39:11.422Z,52.3
2023-04-10T14:41:10.923Z,51.5
2023-04-10T14:43:10.531Z,51.2
2023-04-10T14:45:11.092Z,51.2
2023-04-10T14:47:11.647Z,51.5
2023-04-10T14:49:13.956Z,51.5
2023-04-10T14:51:11.075Z,51.5
2023-04-10T14:53:11.274Z,50.9
2023-04-10T14:55:11.523Z,50.9
2023-04-10T14:57:11.774Z,49.9
2023-04-10T14:59:11.860Z,50.9
2023-04-10T15:01:13.249Z,49.7
2023-04-10T15:03:12.422Z,48.6
2023-04-10T15:05:13.590Z,48.6
2023-04-10T15:07:13.304Z,48.6
2023-04-10T15:09:13.028Z,48.6
2023-04-10T15:11:13.128Z,48.6
2023-04-10T15:13:13.505Z,49.5
2023-04-10T15:15:13.477Z,49.4
2023-04-10T15:17:13.674Z,48.3
2023-04-10T15:19:13.903Z,49.7
2023-04-10T15:21:14.186Z,48.7
2023-04-10T15:23:14.329Z,48.7
2023-04-10T15:25:14.664Z,48.7
2023-04-10T15:27:14.620Z,48.7
2023-04-10T15:29:15.138Z,48.7
2023-04-10T15:31:15.213Z,48.7
2023-04-10T15:33:15.505Z,48.1
2023-04-10T15:35:15.637Z,48.1
2023-04-10T15:37:16.115Z,48.1
2023-04-10T15:39:15.813Z,48.8
2023-04-10T15:41:16.156Z,49.8
2023-04-10T15:43:16.298Z,54.7
2023-04-10T15:45:16.493Z,56.9
2023-04-10T15:47:16.633Z,58.4
2023-04-10T15:49:29.666Z,58.4
2023-04-10T15:51:16.984Z,57.9
2023-04-10T15:53:17.244Z,58
2023-04-10T15:55:17.609Z,59
2023-04-10T15:57:17.629Z,56.9
2023-04-10T15:59:18.481Z,58.1
2023-04-10T16:01:17.940Z,58.1
2023-04-10T16:03:18.246Z,58.8
2023-04-10T16:05:18.381Z,58.8
2023-04-10T16:07:18.414Z,57.3
2023-04-10T16:11:19.660Z,60
2023-04-10T16:13:19.003Z,58.9
2023-04-10T16:15:19.230Z,58.9
2023-04-10T16:17:19.425Z,59.8
2023-04-10T16:19:20.024Z,60.1
2023-04-10T16:21:19.494Z,60
2023-04-10T16:23:19.712Z,60.4
2023-04-10T16:25:21.823Z,60.4
2023-04-10T16:27:19.973Z,60.9
2023-04-10T16:29:20.088Z,61
2023-04-10T16:31:20.276Z,60.1
2023-04-10T16:33:20.292Z,59.9
2023-04-10T16:35:20.482Z,61.4
2023-04-10T16:37:20.591Z,60.3
2023-04-10T16:39:20.638Z,61
2023-04-10T16:41:21.092Z,61
2023-04-10T16:43:22.030Z,62.3
2023-04-10T16:45:21.005Z,61.4
2023-04-10T16:47:21.147Z,61.7
2023-04-10T16:49:21.283Z,63.1
2023-04-10T16:51:21.377Z,62.1
2023-04-10T16:53:21.753Z,63.9
2023-04-10T16:55:21.639Z,63.3
2023-04-10T16:57:21.850Z,63.4
2023-04-10T16:59:21.855Z,64.8
2023-04-10T17:01:24.100Z,66
2023-04-10T17:03:22.023Z,65.5
2023-04-10T17:05:22.219Z,66.6
2023-04-10T17:07:22.791Z,64.5
2023-04-10T17:09:22.470Z,66.8
2023-04-10T17:11:22.689Z,65.2
2023-04-10T17:13:22.731Z,65.9
2023-04-10T17:15:23.290Z,65.9
2023-04-10T17:17:22.966Z,66
2023-04-10T17:19:22.900Z,65.5
2023-04-10T17:21:23.041Z,65.5
2023-04-10T17:23:23.121Z,65.8
2023-04-10T17:25:23.261Z,64.9
2023-04-10T17:27:23.363Z,65.5
2023-04-10T17:29:23.307Z,66.2
2023-04-10T17:31:23.460Z,67.1
2023-04-10T17:33:23.660Z,67.8
2023-04-10T17:35:23.772Z,67.6
2023-04-10T17:37:23.824Z,67.8
2023-04-10T17:39:24.119Z,67.1
2023-04-10T17:41:23.974Z,67.1
2023-04-10T17:43:24.128Z,67.9
2023-04-10T17:45:24.127Z,66.7
2023-04-10T17:47:24.274Z,67.5
2023-04-10T17:49:24.802Z,67.5
2023-04-10T17:51:24.447Z,67.5
2023-04-10T17:53:24.570Z,68.3
2023-04-10T17:55:24.650Z,69
2023-04-10T17:57:25.080Z,70.4
2023-04-10T17:59:24.780Z,71.6
2023-04-10T18:01:26.292Z,70
2023-04-10T18:03:24.893Z,71.3
2023-04-10T18:05:25.328Z,70.4
2023-04-10T18:07:25.056Z,70.4
2023-04-10T18:09:25.094Z,74.6
2023-04-10T18:11:25.200Z,72.7
2023-04-10T18:13:25.266Z,73.2
2023-04-10T18:15:25.478Z,74.1
2023-04-10T18:17:25.700Z,74.3
2023-04-10T18:19:25.506Z,75.2
2023-04-10T18:21:25.508Z,73.5
2023-04-10T18:23:25.675Z,72.8
2023-04-10T18:25:26.510Z,75.5
2023-04-10T18:27:26.030Z,74.1
2023-04-10T18:29:25.880Z,74.1
2023-04-10T18:31:25.917Z,74.1
2023-04-10T18:33:26.089Z,76.8
2023-04-10T18:35:26.140Z,76.8
2023-04-10T18:37:26.439Z,76.1
2023-04-10T18:39:26.431Z,75.6
2023-04-10T18:41:26.349Z,75.4
2023-04-10T18:43:26.603Z,75.1
2023-04-10T18:45:26.490Z,74.8
2023-04-10T18:47:26.735Z,75.5
2023-04-10T18:49:26.662Z,79.6
2023-04-10T18:51:26.680Z,75.8
2023-04-10T18:53:26.802Z,80.4
2023-04-10T18:55:26.809Z,77.3
2023-04-10T18:57:26.935Z,76.2
2023-04-10T18:59:27.566Z,77.1
2023-04-10T19:01:27.117Z,77.1
2023-04-10T19:03:27.296Z,79
2023-04-10T19:05:29.773Z,79.6
2023-04-10T19:07:27.220Z,78.7
2023-04-10T19:09:27.158Z,77.9
2023-04-10T19:11:27.281Z,77.4
2023-04-10T19:13:27.249Z,77.6
2023-04-10T19:15:27.358Z,81.2
2023-04-10T19:17:27.400Z,80.4
2023-04-10T19:19:27.339Z,79.6
2023-04-10T19:21:27.529Z,79.6
2023-04-10T19:23:27.556Z,79.9
2023-04-10T19:25:27.475Z,79.9
2023-04-10T19:27:27.525Z,79.9
2023-04-10T19:29:27.567Z,80.6
2023-04-10T19:31:27.742Z,79.6
2023-04-10T19:33:27.502Z,79.3
2023-04-10T19:35:27.509Z,78.6
2023-04-10T19:37:29.860Z,78.6
2023-04-10T19:39:28.029Z,77.9
2023-04-10T19:41:27.733Z,77.3
2023-04-10T19:43:27.583Z,77.2
2023-04-10T19:45:27.840Z,78.8
2023-04-10T19:47:27.779Z,77.7
2023-04-10T19:49:30.631Z,77.7
2023-04-10T19:51:27.738Z,76.9
2023-04-10T19:53:27.855Z,76.8
2023-04-10T19:55:27.884Z,76.8
2023-04-10T19:57:27.882Z,79
2023-04-10T19:59:28.239Z,75.2
2023-04-10T20:01:28.052Z,75.2
2023-04-10T20:03:28.134Z,75.2
2023-04-10T20:05:28.811Z,75.2
2023-04-10T20:07:28.047Z,74.2
2023-04-10T20:09:28.081Z,74.2
2023-04-10T20:11:28.256Z,76.3
2023-04-10T20:13:28.134Z,75.6
2023-04-10T20:15:28.206Z,76.9
2023-04-10T20:17:28.311Z,78
2023-04-10T20:19:28.290Z,77.6
2023-04-10T20:21:28.634Z,76.5
2023-04-10T20:23:28.621Z,75.8
2023-04-10T20:25:28.463Z,75.8
2023-04-10T20:27:28.576Z,76.5
2023-04-10T20:29:28.513Z,76.5
2023-04-10T20:31:28.590Z,76.5
2023-04-10T20:33:28.653Z,77.4
2023-04-10T20:35:28.710Z,77.7
2023-04-10T20:37:28.605Z,77.7
2023-04-10T20:39:28.729Z,77.7
2023-04-10T20:41:28.767Z,77.7
2023-04-10T20:43:28.743Z,77.9
2023-04-10T20:45:28.892Z,77.9
2023-04-10T20:47:28.968Z,78.4
2023-04-10T20:49:28.931Z,79.5
2023-04-10T20:51:28.963Z,78.3
2023-04-10T20:53:29.089Z,77.6
2023-04-10T20:55:29.013Z,77.6
2023-04-10T20:57:29.092Z,77.1
2023-04-10T20:59:29.327Z,77.1
2023-04-10T21:01:29.291Z,77.1
2023-04-10T21:03:29.661Z,77.3
2023-04-10T21:05:29.256Z,77.3
2023-04-10T21:07:29.280Z,77.3
2023-04-10T21:09:29.259Z,76.6
2023-04-10T21:11:29.386Z,76.8
2023-04-10T21:13:29.396Z,78.3
2023-04-10T21:15:29.667Z,78.9
2023-04-10T21:17:29.556Z,78
2023-04-10T21:19:29.445Z,77.9
2023-04-10T21:21:29.438Z,77.2
2023-04-10T21:23:29.540Z,77.6
2023-04-10T21:25:31.714Z,78.3
2023-04-10T21:27:29.561Z,78.3
2023-04-10T21:29:29.995Z,78.8
2023-04-10T21:31:29.606Z,79
2023-04-10T21:33:30.515Z,79.8
2023-04-10T21:35:29.778Z,81.5
2023-04-10T21:37:29.649Z,84.4
2023-04-10T21:39:29.749Z,81
2023-04-10T21:41:29.754Z,81.7
2023-04-10T21:43:29.786Z,81.1
2023-04-10T21:45:29.860Z,79.6
2023-04-10T21:47:29.821Z,79.4
2023-04-10T21:49:29.834Z,79.4
2023-04-10T21:51:29.888Z,80.4
2023-04-10T21:53:29.794Z,81.7
2023-04-10T21:55:29.824Z,81.7
2023-04-10T21:57:29.914Z,82.8
2023-04-10T21:59:29.821Z,82.4
2023-04-10T22:01:29.920Z,80.5
2023-04-10T22:03:29.928Z,80.9
2023-04-10T22:05:29.934Z,82.9
2023-04-10T22:07:30.060Z,83.9
2023-04-10T22:09:29.830Z,82.6
2023-04-10T22:11:29.883Z,81.4
2023-04-10T22:13:31.219Z,80.8
2023-04-10T22:15:29.986Z,80.3
2023-04-10T22:17:29.892Z,80.9
2023-04-10T22:19:29.992Z,80.9
2023-04-10T22:21:29.856Z,80.9
2023-04-10T22:23:30.698Z,81.2
2023-04-10T22:25:29.980Z,81.2
2023-04-10T22:27:29.823Z,81.5
2023-04-10T22:29:29.902Z,81.5
2023-04-10T22:31:29.823Z,81.9
2023-04-10T22:33:31.797Z,81.8
2023-04-10T22:35:30.052Z,83.2
2023-04-10T22:37:29.739Z,82.5
2023-04-10T22:39:29.760Z,81.9
2023-04-10T22:41:30.604Z,83.4
2023-04-10T22:43:29.719Z,83.9
2023-04-10T22:45:29.722Z,82.7
2023-04-10T22:47:29.800Z,82.7
2023-04-10T22:49:30.071Z,82.7
2023-04-10T22:51:29.741Z,83.7
2023-04-10T22:53:29.822Z,84.6
2023-04-10T22:55:29.655Z,85.8
2023-04-10T22:57:29.677Z,83.5
2023-04-10T22:59:29.830Z,83.5
2023-04-10T23:01:29.698Z,83.5
2023-04-10T23:03:29.687Z,84
2023-04-10T23:05:29.797Z,84.4
2023-04-10T23:07:29.559Z,84.1
2023-04-10T23:09:29.720Z,84.8
2023-04-10T23:11:29.631Z,84.2
2023-04-10T23:13:29.954Z,85.1
2023-04-10T23:15:29.704Z,84.5
2023-04-10T23:17:29.705Z,84
2023-04-10T23:19:29.507Z,84.5
2023-04-10T23:21:29.780Z,83.8
2023-04-10T23:23:29.479Z,84.7
2023-04-10T23:25:29.559Z,83.6
2023-04-10T23:27:29.502Z,83.6
2023-04-10T23:29:29.505Z,83.6
2023-04-10T23:31:29.505Z,84.5
2023-04-10T23:33:29.445Z,84.1
2023-04-10T23:35:29.564Z,84.2
2023-04-10T23:37:29.951Z,84.1
2023-04-10T23:39:29.364Z,84.1
2023-04-10T23:41:29.341Z,84.1
2023-04-10T23:43:29.275Z,84.5
2023-04-10T23:45:29.330Z,84.5
2023-04-10T23:47:29.290Z,85
2023-04-10T23:49:29.225Z,85
2023-04-10T23:51:29.239Z,85
2023-04-10T23:53:29.219Z,85
2023-04-10T23:55:29.151Z,85
2023-04-10T23:57:29.222Z,85.6
2023-04-10T23:59:29.065Z,86
